createdAt,value
2023-04-15T00:00:29.095Z,6.61
2023-04-15T00:03:32.068Z,6.66
2023-04-15T00:06:35.276Z,6.72
2023-04-15T00:09:38.097Z,6.79
2023-04-15T00:12:41.221Z,6.87
2023-04-15T00:15:43.909Z,6.89
2023-04-15T00:18:46.386Z,6.94
2023-04-15T00:21:49.072Z,6.94
2023-04-15T00:24:52.569Z,6.94
2023-04-15T00:27:55.353Z,6.98
2023-04-15T00:30:58.757Z,7.05
2023-04-15T00:34:02.559Z,7.08
2023-04-15T00:37:04.995Z,7.12
2023-04-15T00:40:12.951Z,7.16
2023-04-15T00:43:16.532Z,7.23
2023-04-15T00:46:21.489Z,7.23
2023-04-15T00:49:24.901Z,7.28
2023-04-15T00:52:27.637Z,7.34
2023-04-15T00:55:30.185Z,7.35
2023-04-15T00:58:33.186Z,7.30
2023-04-15T01:01:39.058Z,7.31
2023-04-15T01:04:42.330Z,7.32
2023-04-15T01:07:44.668Z,7.33
2023-04-15T01:10:47.792Z,7.33
2023-04-15T01:13:51.239Z,7.34
2023-04-15T01:16:53.888Z,7.30
2023-04-15T01:20:00.135Z,7.20
2023-04-15T01:23:06.407Z,7.08
2023-04-15T01:26:09.575Z,6.98
2023-04-15T01:29:13.290Z,6.93
2023-04-15T01:32:15.957Z,6.85
2023-04-15T01:35:20.152Z,6.79
2023-04-15T01:38:22.587Z,6.74
2023-04-15T01:41:29.119Z,6.68
2023-04-15T01:44:31.665Z,6.62
2023-04-15T01:47:34.506Z,6.54
2023-04-15T01:50:38.267Z,6.48
2023-04-15T01:53:41.187Z,6.36
2023-04-15T01:56:44.290Z,6.26
2023-04-15T01:59:47.484Z,6.15
2023-04-15T02:02:50.779Z,6.05
2023-04-15T02:05:53.444Z,5.98
2023-04-15T02:08:56.620Z,5.92
2023-04-15T02:11:59.559Z,5.93
2023-04-15T02:15:02.553Z,5.97
2023-04-15T02:18:05.432Z,6.02
2023-04-15T02:21:08.307Z,6.06
2023-04-15T02:24:12.843Z,6.12
2023-04-15T02:27:22.988Z,6.23
2023-04-15T02:30:27.288Z,6.32
2023-04-15T02:33:29.633Z,6.37
2023-04-15T02:36:32.272Z,6.38
2023-04-15T02:39:34.659Z,6.34
2023-04-15T02:42:37.811Z,6.28
2023-04-15T02:45:41.405Z,6.25
2023-04-15T02:48:44.319Z,6.23
2023-04-15T02:51:50.033Z,6.21
2023-04-15T02:54:57.819Z,6.14
2023-04-15T02:58:01.237Z,6.05
2023-04-15T03:01:04.171Z,6.04
2023-04-15T03:04:09.045Z,6.07
2023-04-15T03:07:11.888Z,6.15
2023-04-15T03:10:14.549Z,6.23
2023-04-15T03:13:17.244Z,6.31
2023-04-15T03:16:20.060Z,6.33
2023-04-15T03:19:22.960Z,6.39
2023-04-15T03:22:26.664Z,6.40
2023-04-15T03:25:29.585Z,6.42
2023-04-15T03:28:32.861Z,6.35
2023-04-15T03:31:36.054Z,6.24
2023-04-15T03:34:38.362Z,6.12
2023-04-15T03:37:41.332Z,6.03
2023-04-15T03:40:44.227Z,5.94
2023-04-15T03:43:46.952Z,5.85
2023-04-15T03:46:49.649Z,5.88
2023-04-15T03:49:52.569Z,5.75
2023-04-15T03:52:55.028Z,5.72
2023-04-15T03:55:57.670Z,5.66
2023-04-15T03:59:00.422Z,5.72
2023-04-15T04:02:03.381Z,5.71
2023-04-15T04:05:06.487Z,5.66
2023-04-15T04:08:08.913Z,5.70
2023-04-15T04:11:11.880Z,5.73
2023-04-15T04:14:14.330Z,5.78
2023-04-15T04:17:17.083Z,5.82
2023-04-15T04:20:19.471Z,5.86
2023-04-15T04:23:22.092Z,5.87
2023-04-15T04:26:24.442Z,5.83
2023-04-15T04:29:27.125Z,5.90
2023-04-15T04:32:29.673Z,5.92
2023-04-15T04:35:34.948Z,5.93
2023-04-15T04:38:37.461Z,5.87
2023-04-15T04:41:40.246Z,5.85
2023-04-15T04:44:42.755Z,5.93
2023-04-15T04:47:45.568Z,6.00
2023-04-15T04:50:48.188Z,6.04
2023-04-15T04:53:50.975Z,6.07
2023-04-15T04:56:53.477Z,6.13
2023-04-15T04:59:56.262Z,6.15
2023-04-15T05:02:59.223Z,6.19
2023-04-15T05:06:06.189Z,6.20
2023-04-15T05:09:08.601Z,6.27
2023-04-15T05:12:15.056Z,6.43
2023-04-15T05:15:17.847Z,6.54
2023-04-15T05:18:20.718Z,6.78
2023-04-15T05:21:23.601Z,7.08
2023-04-15T05:24:26.606Z,7.50
2023-04-15T05:27:29.132Z,7.81
2023-04-15T05:30:32.270Z,8.05
2023-04-15T05:33:34.949Z,8.15
2023-04-15T05:36:37.805Z,8.33
2023-04-15T05:39:40.376Z,8.44
2023-04-15T05:42:43.118Z,8.68
2023-04-15T05:45:45.969Z,8.84
2023-04-15T05:48:48.647Z,9.16
2023-04-15T05:51:51.575Z,9.82
2023-04-15T05:54:54.477Z,10.02
2023-04-15T05:57:57.426Z,10.33
2023-04-15T06:01:00.520Z,10.10
2023-04-15T06:04:03.273Z,10.23
2023-04-15T06:07:06.091Z,10.23
2023-04-15T06:10:09.273Z,10.26
2023-04-15T06:13:11.709Z,10.30
2023-04-15T06:16:14.529Z,10.63
2023-04-15T06:19:17.285Z,10.64
2023-04-15T06:22:20.068Z,10.52
2023-04-15T06:25:22.656Z,10.59
2023-04-15T06:28:25.595Z,10.87
2023-04-15T06:31:28.004Z,10.88
2023-04-15T06:34:30.797Z,10.87
2023-04-15T06:37:33.177Z,10.86
2023-04-15T06:40:36.115Z,11.44
2023-04-15T06:43:39.383Z,12.13
2023-04-15T06:46:42.252Z,12.28
2023-04-15T06:49:45.002Z,12.26
2023-04-15T06:52:47.741Z,12.72
2023-04-15T06:55:50.034Z,12.71
2023-04-15T06:58:52.913Z,13.03
2023-04-15T07:01:55.741Z,13.09
2023-04-15T07:04:58.511Z,13.99
2023-04-15T07:08:01.253Z,13.05
2023-04-15T07:11:04.354Z,13.34
2023-04-15T07:14:06.943Z,13.30
2023-04-15T07:17:09.994Z,13.20
2023-04-15T07:20:13.037Z,13.28
2023-04-15T07:23:16.384Z,14.54
2023-04-15T07:26:18.794Z,14.08
2023-04-15T07:29:21.702Z,13.95
2023-04-15T07:32:24.202Z,13.30
2023-04-15T07:35:27.647Z,13.92
2023-04-15T07:38:30.166Z,13.92
2023-04-15T07:41:33.080Z,12.80
2023-04-15T07:44:35.752Z,13.03
2023-04-15T07:47:38.453Z,13.04
2023-04-15T07:50:40.840Z,13.04
2023-04-15T07:53:44.768Z,13.49
2023-04-15T07:56:47.282Z,14.27
2023-04-15T07:59:50.111Z,13.86
2023-04-15T08:02:54.152Z,16.30
2023-04-15T08:05:57.557Z,16.36
2023-04-15T08:09:00.546Z,17.88
2023-04-15T08:12:03.919Z,17.25
2023-04-15T08:15:08.342Z,17.73
2023-04-15T08:18:11.339Z,16.80
2023-04-15T08:21:14.084Z,15.03
2023-04-15T08:24:16.805Z,14.53
2023-04-15T08:27:20.069Z,15.29
2023-04-15T08:30:22.830Z,14.68
2023-04-15T08:33:25.978Z,14.30
2023-04-15T08:36:28.669Z,14.37
2023-04-15T08:39:31.187Z,14.14
2023-04-15T08:42:42.901Z,13.92
2023-04-15T08:45:46.935Z,14.28
2023-04-15T08:48:50.500Z,16.41
2023-04-15T08:51:53.311Z,15.98
2023-04-15T08:55:01.091Z,15.63
2023-04-15T08:58:04.788Z,15.40
2023-04-15T09:01:07.958Z,16.94
2023-04-15T09:04:12.597Z,17.89
2023-04-15T09:07:15.480Z,16.32
2023-04-15T09:10:17.994Z,16.14
2023-04-15T09:13:20.638Z,15.39
2023-04-15T09:16:23.159Z,15.03
2023-04-15T09:19:26.321Z,14.98
2023-04-15T09:22:33.047Z,14.42
2023-04-15T09:25:35.902Z,14.93
2023-04-15T09:28:43.613Z,15.16
2023-04-15T09:31:46.649Z,15.31
2023-04-15T09:34:49.164Z,14.58
2023-04-15T09:37:52.783Z,13.91
2023-04-15T09:40:55.449Z,16.57
2023-04-15T09:43:58.161Z,15.73
2023-04-15T09:47:00.945Z,15.46
2023-04-15T09:50:03.997Z,18.48
2023-04-15T09:53:06.500Z,18.59
2023-04-15T09:56:10.616Z,19.64
2023-04-15T09:59:13.106Z,20.09
2023-04-15T10:02:16.553Z,19.21
2023-04-15T10:05:19.420Z,19.18
2023-04-15T10:08:25.028Z,20.40
2023-04-15T10:11:30.386Z,20.39
2023-04-15T10:14:38.655Z,21.54
2023-04-15T10:17:45.106Z,22.27
2023-04-15T10:20:49.160Z,22.27
2023-04-15T10:23:52.361Z,20.60
2023-04-15T10:26:55.607Z,22.07
2023-04-15T10:30:03.865Z,22.63
2023-04-15T10:33:08.858Z,22.75
2023-04-15T10:36:12.639Z,18.19
2023-04-15T10:39:34.254Z,17.32
2023-04-15T10:42:37.078Z,15.91
2023-04-15T10:45:39.492Z,15.00
2023-04-15T10:48:48.816Z,15.40
2023-04-15T10:51:59.035Z,15.90
2023-04-15T10:55:07.806Z,16.55
2023-04-15T10:58:10.460Z,16.08
2023-04-15T11:01:13.590Z,15.92
2023-04-15T11:04:35.955Z,15.35
2023-04-15T11:07:40.207Z,16.05
2023-04-15T11:10:42.555Z,16.89
2023-04-15T11:13:52.648Z,16.31
2023-04-15T11:16:55.610Z,16.92
2023-04-15T11:19:58.672Z,19.43
2023-04-15T11:23:14.166Z,20.23
2023-04-15T11:26:18.477Z,19.27
2023-04-15T11:29:21.398Z,17.69
2023-04-15T11:32:24.078Z,16.50
2023-04-15T11:35:26.856Z,16.28
2023-04-15T11:38:29.556Z,15.54
2023-04-15T11:41:31.875Z,17.47
2023-04-15T11:44:34.582Z,19.20
2023-04-15T11:47:37.939Z,18.51
2023-04-15T11:50:41.360Z,18.18
2023-04-15T11:53:52.114Z,19.69
2023-04-15T11:56:55.005Z,19.44
2023-04-15T11:59:57.454Z,20.00
2023-04-15T12:03:18.014Z,21.00
2023-04-15T12:06:24.759Z,20.29
2023-04-15T12:09:27.195Z,18.08
2023-04-15T12:12:30.905Z,17.77
2023-04-15T12:15:33.302Z,20.21
2023-04-15T12:18:38.557Z,19.50
2023-04-15T12:21:44.196Z,18.96
2023-04-15T12:24:48.832Z,18.02
2023-04-15T12:27:53.526Z,18.18
2023-04-15T12:30:56.539Z,17.52
2023-04-15T12:34:01.166Z,18.40
2023-04-15T12:37:07.284Z,17.05
2023-04-15T12:40:10.172Z,17.14
2023-04-15T12:43:12.851Z,18.12
2023-04-15T12:46:15.882Z,17.24
2023-04-15T12:49:20.976Z,16.68
2023-04-15T12:52:24.497Z,16.25
2023-04-15T12:55:27.825Z,15.71
2023-04-15T12:58:30.372Z,15.56
2023-04-15T13:01:33.431Z,16.11
2023-04-15T13:04:36.137Z,17.03
2023-04-15T13:07:39.100Z,18.00
2023-04-15T13:10:42.580Z,18.90
2023-04-15T13:13:45.629Z,17.73
2023-04-15T13:16:48.033Z,17.12
2023-04-15T13:19:50.737Z,16.54
2023-04-15T13:22:54.266Z,16.18
2023-04-15T13:25:57.233Z,16.31
2023-04-15T13:29:00.730Z,15.94
2023-04-15T13:32:03.970Z,15.52
2023-04-15T13:35:06.839Z,15.33
2023-04-15T13:38:09.634Z,14.88
2023-04-15T13:41:11.988Z,14.29
2023-04-15T13:44:14.797Z,13.90
2023-04-15T13:47:19.256Z,13.86
2023-04-15T13:50:22.350Z,14.13
2023-04-15T13:53:27.438Z,14.10
2023-04-15T13:56:41.442Z,14.37
2023-04-15T13:59:44.232Z,14.01
2023-04-15T14:02:47.114Z,14.26
2023-04-15T14:05:55.853Z,14.31
2023-04-15T14:08:58.324Z,14.37
2023-04-15T14:12:01.610Z,14.46
2023-04-15T14:15:04.430Z,15.09
2023-04-15T14:18:08.011Z,15.74
2023-04-15T14:21:10.648Z,16.24
2023-04-15T14:24:13.532Z,16.29
2023-04-15T14:27:16.797Z,17.11
2023-04-15T14:30:19.593Z,17.10
2023-04-15T14:33:21.931Z,18.12
2023-04-15T14:36:24.607Z,18.64
2023-04-15T14:39:27.462Z,19.43
2023-04-15T14:42:30.413Z,17.79
2023-04-15T14:45:33.029Z,16.96
2023-04-15T14:48:35.920Z,16.12
2023-04-15T14:51:39.649Z,15.73
2023-04-15T14:54:43.928Z,15.28
2023-04-15T14:57:46.372Z,15.14
2023-04-15T15:00:49.089Z,15.26
2023-04-15T15:03:51.653Z,16.54
2023-04-15T15:06:55.036Z,17.40
2023-04-15T15:09:57.503Z,16.65
2023-04-15T15:13:00.336Z,16.09
2023-04-15T15:16:02.931Z,16.26
2023-04-15T15:19:05.958Z,16.25
2023-04-15T15:22:08.536Z,15.86
2023-04-15T15:25:11.281Z,15.29
2023-04-15T15:28:13.722Z,14.84
2023-04-15T15:31:16.774Z,14.88
2023-04-15T15:34:19.250Z,14.66
2023-04-15T15:37:22.057Z,14.67
2023-04-15T15:40:24.622Z,14.60
2023-04-15T15:43:27.477Z,14.92
2023-04-15T15:46:31.534Z,15.14
2023-04-15T15:49:34.571Z,15.01
2023-04-15T15:52:36.947Z,14.98
2023-04-15T15:55:39.579Z,14.95
2023-04-15T15:58:45.070Z,14.92
2023-04-15T16:01:48.415Z,14.74
2023-04-15T16:04:52.610Z,14.62
2023-04-15T16:07:55.029Z,14.56
2023-04-15T16:10:57.910Z,14.42
2023-04-15T16:14:00.286Z,14.05
2023-04-15T16:17:02.930Z,13.84
2023-04-15T16:20:06.290Z,13.72
2023-04-15T16:23:14.066Z,13.66
2023-04-15T16:26:17.078Z,13.55
2023-04-15T16:29:19.995Z,13.32
2023-04-15T16:32:22.692Z,13.16
2023-04-15T16:35:25.538Z,13.01
2023-04-15T16:38:28.061Z,12.86
2023-04-15T16:41:32.595Z,12.71
2023-04-15T16:44:36.339Z,12.57
2023-04-15T16:47:39.099Z,12.40
2023-04-15T16:50:41.666Z,12.30
2023-04-15T16:53:44.477Z,12.16
2023-04-15T16:56:46.937Z,12.01
2023-04-15T16:59:50.124Z,11.87
2023-04-15T17:02:52.852Z,11.72
2023-04-15T17:05:55.917Z,11.58
2023-04-15T17:08:58.268Z,11.46
2023-04-15T17:12:01.923Z,11.33
2023-04-15T17:15:04.611Z,11.16
2023-04-15T17:18:08.679Z,11.05
2023-04-15T17:21:11.167Z,10.88
2023-04-15T17:24:13.957Z,10.77
2023-04-15T17:30:19.404Z,10.62
2023-04-15T17:33:54.049Z,10.50
2023-04-15T17:36:45.472Z,10.36
2023-04-15T17:39:48.036Z,10.35
2023-04-15T17:42:50.806Z,10.44
2023-04-15T17:45:53.195Z,10.42
2023-04-15T17:48:56.129Z,10.36
2023-04-15T17:51:58.748Z,10.25
2023-04-15T17:55:01.478Z,10.14
2023-04-15T17:58:04.052Z,10.01
2023-04-15T18:01:06.822Z,9.91
2023-04-15T18:04:09.737Z,9.75
2023-04-15T18:07:12.400Z,9.60
2023-04-15T18:10:15.026Z,9.48
2023-04-15T18:13:17.443Z,9.37
2023-04-15T18:16:20.493Z,9.27
2023-04-15T18:19:24.625Z,9.16
2023-04-15T18:22:27.362Z,9.09
2023-04-15T18:25:30.185Z,9.04
2023-04-15T18:28:33.033Z,9.02
2023-04-15T18:31:35.479Z,9.00
2023-04-15T18:34:38.421Z,8.97
2023-04-15T18:37:40.781Z,8.94
2023-04-15T18:40:43.496Z,9.00
2023-04-15T18:43:46.005Z,8.98
2023-04-15T18:46:49.473Z,8.92
2023-04-15T18:49:52.113Z,8.87
2023-04-15T18:52:54.775Z,8.80
2023-04-15T18:55:58.106Z,8.71
2023-04-15T18:59:09.880Z,8.63
2023-04-15T19:02:23.529Z,8.56
2023-04-15T19:05:26.266Z,8.46
2023-04-15T19:08:29.729Z,8.37
2023-04-15T19:11:32.335Z,8.28
2023-04-15T19:14:34.911Z,8.21
2023-04-15T19:17:37.645Z,8.11
2023-04-15T19:20:40.393Z,8.02
2023-04-15T19:23:43.352Z,7.96
2023-04-15T19:26:49.074Z,7.87
2023-04-15T19:29:51.813Z,7.88
2023-04-15T19:32:54.281Z,7.95
2023-04-15T19:36:05.437Z,7.85
2023-04-15T19:39:08.247Z,7.85
2023-04-15T19:42:11.053Z,7.79
2023-04-15T19:45:13.776Z,7.80
2023-04-15T19:48:16.864Z,7.73
2023-04-15T19:51:19.595Z,7.80
2023-04-15T19:54:25.102Z,7.76
2023-04-15T19:57:27.606Z,7.79
2023-04-15T20:00:31.432Z,7.85
2023-04-15T20:03:34.177Z,7.88
2023-04-15T20:06:36.548Z,7.84
2023-04-15T20:09:39.367Z,7.76
2023-04-15T20:12:51.628Z,7.71
2023-04-15T20:15:55.776Z,7.70
2023-04-15T20:19:18.496Z,7.64
2023-04-15T20:22:21.287Z,7.60
2023-04-15T20:25:23.983Z,7.50
2023-04-15T20:28:27.881Z,7.43
2023-04-15T20:31:30.389Z,7.40
2023-04-15T20:34:33.126Z,7.33
2023-04-15T20:37:38.069Z,7.29
2023-04-15T20:40:41.871Z,7.21
2023-04-15T20:43:44.295Z,7.12
2023-04-15T20:46:47.023Z,7.05
2023-04-15T20:49:49.708Z,6.94
2023-04-15T20:52:52.539Z,6.87
2023-04-15T20:55:55.080Z,6.79
2023-04-15T20:58:58.032Z,6.83
2023-04-15T21:02:00.749Z,6.86
2023-04-15T21:05:03.602Z,6.85
2023-04-15T21:08:06.355Z,6.77
2023-04-15T21:11:09.032Z,6.76
2023-04-15T21:14:12.359Z,6.70
2023-04-15T21:17:15.163Z,6.60
2023-04-15T21:20:17.863Z,6.61
2023-04-15T21:23:20.848Z,6.71
2023-04-15T21:26:23.265Z,6.73
2023-04-15T21:29:26.046Z,6.64
2023-04-15T21:32:30.523Z,6.57
2023-04-15T21:35:33.321Z,6.57
2023-04-15T21:38:35.785Z,6.61
2023-04-15T21:41:38.615Z,6.49
2023-04-15T21:44:41.511Z,6.41
2023-04-15T21:48:01.034Z,6.47
2023-04-15T21:51:08.133Z,6.56
2023-04-15T21:54:11.100Z,6.53
2023-04-15T21:57:13.783Z,6.56
2023-04-15T22:00:16.658Z,6.52
2023-04-15T22:03:19.452Z,6.38
2023-04-15T22:06:22.019Z,6.35
2023-04-15T22:09:24.706Z,6.26
2023-04-15T22:12:27.237Z,6.16
2023-04-15T22:15:30.134Z,6.08
2023-04-15T22:18:32.579Z,6.13
2023-04-15T22:21:35.531Z,6.15
2023-04-15T22:24:40.670Z,6.29
2023-04-15T22:27:43.807Z,6.32
2023-04-15T22:30:46.200Z,6.32
2023-04-15T22:33:48.837Z,6.27
2023-04-15T22:36:52.078Z,6.22
2023-04-15T22:39:54.878Z,6.16
2023-04-15T22:42:57.354Z,6.06
2023-04-15T22:46:01.089Z,6.02
2023-04-15T22:49:06.212Z,5.96
2023-04-15T22:52:10.425Z,5.85
2023-04-15T22:55:14.924Z,5.74
2023-04-15T22:58:18.444Z,5.59
2023-04-15T23:01:21.263Z,5.52
2023-04-15T23:04:27.674Z,5.50
2023-04-15T23:07:30.444Z,5.48
2023-04-15T23:10:33.485Z,5.38
2023-04-15T23:13:36.335Z,5.50
2023-04-15T23:16:39.194Z,5.35
2023-04-15T23:19:41.531Z,5.31
2023-04-15T23:22:44.287Z,5.21
2023-04-15T23:25:46.844Z,5.27
2023-04-15T23:28:49.532Z,5.22
2023-04-15T23:31:54.371Z,5.14
2023-04-15T23:34:57.264Z,5.04
2023-04-15T23:37:59.857Z,5.08
2023-04-15T23:41:02.620Z,5.36
2023-04-15T23:44:05.365Z,5.39
2023-04-15T23:47:08.233Z,5.26
2023-04-15T23:50:10.966Z,5.15
2023-04-15T23:53:13.558Z,5.26
2023-04-15T23:56:15.969Z,5.25
2023-04-15T23:59:18.727Z,5.20
